| time (UTC) | temp C | wind direction | speed KPH | gust KPH | rain 1hr cm | rain 24hr cm | rain mn cm | humidity % | barometer mb |
| 20260507143346 | -17 | 257 | 1.6 | 6.4 | 0.00 | 0.00 | 0.00 | 1019.8 | |
| 20260507142345 | -17 | 259 | 1.6 | 4.8 | 0.00 | 0.00 | 0.00 | 1019.7 | |
| 20260507141409 | -17 | 258 | 1.6 | 3.2 | 0.00 | 0.00 | 0.00 | 1019.6 | |
| 20260507140346 | -17 | 255 | 4.8 | 9.7 | 0.00 | 0.00 | 0.00 | 1019.6 | |
| 20260507135347 | -17 | 248 | 3.2 | 8.0 | 0.00 | 0.00 | 0.00 | 1019.6 | |
| 20260507134346 | -17 | 282 | 3.2 | 9.7 | 0.00 | 0.00 | 0.00 | 1019.6 | |
| 20260507133346 | -17 | 256 | 3.2 | 9.7 | 0.00 | 0.00 | 0.00 | 1019.5 | |
| 20260507132348 | -17 | 253 | 1.6 | 4.8 | 0.00 | 0.00 | 0.00 | 1019.5 | |
| 20260507131436 | -17 | 277 | 3.2 | 9.7 | 0.00 | 0.00 | 0.00 | 1019.4 | |
| 20260507130346 | -17 | 272 | 3.2 | 8.0 | 0.00 | 0.00 | 0.00 | 1019.4 | |
| 20260507124417 | -17 | 287 | 1.6 | 6.4 | 0.00 | 0.00 | 0.00 | 1019.4 | |
| 20260507123349 | -17 | 299 | 1.6 | 6.4 | 0.00 | 0.00 | 0.00 | 1019.4 | |
| 20260507122346 | -17 | 301 | 1.6 | 6.4 | 0.00 | 0.00 | 0.00 | 1019.5 | |
| 20260507120245 | -17 | 295 | 3.2 | 11.3 | 0.00 | 0.00 | 0.00 | 1019.7 | |
| 20260507115245 | -17 | 270 | 3.2 | 8.0 | 0.00 | 0.00 | 0.00 | 1019.7 | |
| 20260507114301 | -17 | 280 | 4.8 | 14.5 | 0.00 | 0.00 | 0.00 | 1019.8 | |
| 20260507113245 | -17 | 309 | 3.2 | 9.7 | 0.00 | 0.00 | 0.00 | 1019.8 | |
| 20260507112245 | -17 | 314 | 3.2 | 8.0 | 0.00 | 0.00 | 0.00 | 1019.8 | |
| 20260507111310 | -17 | 303 | 6.4 | 12.9 | 0.00 | 0.00 | 0.00 | 1019.8 | |
| 20260507110246 | -17 | 278 | 8.0 | 16.1 | 0.00 | 0.00 | 0.00 | 1019.7 | |
| 20260507105245 | -17 | 263 | 9.7 | 16.1 | 0.00 | 0.00 | 0.00 | 1019.7 | |
| 20260507104245 | -17 | 266 | 8.0 | 14.5 | 0.00 | 0.00 | 0.00 | 1019.8 | |
| 20260507103245 | -17 | 277 | 11.3 | 16.1 | 0.00 | 0.00 | 0.00 | 1019.9 | |
| 20260507102246 | -17 | 276 | 9.7 | 16.1 | 0.00 | 0.00 | 0.00 | 1019.9 | |
| 20260507101311 | -17 | 280 | 11.3 | 17.7 | 0.00 | 0.00 | 0.00 | 1019.9 | |
| 20260507100245 | -17 | 284 | 11.3 | 16.1 | 0.00 | 0.00 | 0.00 | 1020.0 | |
| 20260507095245 | -17 | 272 | 11.3 | 16.1 | 0.00 | 0.00 | 0.00 | 1020.1 | |
| 20260507094246 | -17 | 265 | 11.3 | 17.7 | 0.00 | 0.00 | 0.00 | 1020.1 | |
| 20260507093245 | -17 | 271 | 12.9 | 19.3 | 0.00 | 0.00 | 0.00 | 1020.2 | |
| 20260507092246 | -17 | 262 | 12.9 | 19.3 | 0.00 | 0.00 | 0.00 | 1020.3 | |
| 20260507091312 | -17 | 244 | 9.7 | 14.5 | 0.00 | 0.00 | 0.00 | 1020.4 | |
| 20260507090245 | -17 | 231 | 9.7 | 17.7 | 0.00 | 0.00 | 0.00 | 1020.5 | |
| 20260507085247 | -17 | 229 | 9.7 | 17.7 | 0.00 | 0.00 | 0.00 | 1020.5 | |
| 20260507084246 | -17 | 221 | 8.0 | 14.5 | 0.00 | 0.00 | 0.00 | 1020.4 | |
| 20260507083246 | -17 | 244 | 8.0 | 16.1 | 0.00 | 0.00 | 0.00 | 1020.4 | |
| 20260507082245 | -17 | 249 | 8.0 | 14.5 | 0.00 | 0.00 | 0.00 | 1020.5 | |
| 20260507081341 | -17 | 245 | 6.4 | 16.1 | 0.00 | 0.00 | 0.00 | 1020.5 | |
| 20260507080245 | -17 | 250 | 8.0 | 16.1 | 0.00 | 0.00 | 0.00 | 1020.6 | |
| 20260507075245 | -17 | 265 | 8.0 | 14.5 | 0.00 | 0.00 | 0.00 | 1020.6 | |
| 20260507074245 | -17 | 274 | 8.0 | 14.5 | 0.00 | 0.00 | 0.00 | 1020.5 | |
| 20260507073245 | -17 | 244 | 6.4 | 14.5 | 0.00 | 0.00 | 0.00 | 1020.5 | |
| 20260507072246 | -17 | 248 | 6.4 | 16.1 | 0.00 | 0.00 | 0.00 | 1020.5 | |
| 20260507071314 | -17 | 262 | 6.4 | 14.5 | 0.00 | 0.00 | 0.00 | 1020.5 | |
| 20260507070245 | -17 | 254 | 9.7 | 16.1 | 0.00 | 0.00 | 0.00 | 1020.5 | |
| 20260507065245 | -17 | 266 | 8.0 | 16.1 | 0.00 | 0.00 | 0.00 | 1020.6 | |
| 20260507064246 | -17 | 260 | 6.4 | 12.9 | 0.00 | 0.00 | 0.00 | 1020.6 | |
| 20260507063246 | -17 | 282 | 6.4 | 12.9 | 0.00 | 0.00 | 0.00 | 1020.6 | |
| 20260507062245 | -17 | 276 | 9.7 | 17.7 | 0.00 | 0.00 | 0.00 | 1020.6 | |
| 20260507061311 | -17 | 266 | 9.7 | 16.1 | 0.00 | 0.00 | 0.00 | 1020.5 | |
| 20260507060245 | -17 | 258 | 8.0 | 16.1 | 0.00 | 0.00 | 0.00 | 1020.5 | |
| 20260507055246 | -17 | 283 | 9.7 | 19.3 | 0.00 | 0.00 | 0.00 | 1020.6 | |
| 20260507054246 | -17 | 255 | 8.0 | 14.5 | 0.00 | 0.00 | 0.00 | 1020.6 | |
| 20260507053301 | -17 | 276 | 8.0 | 14.5 | 0.00 | 0.00 | 0.00 | 1020.6 | |
| 20260507052246 | -17 | 251 | 8.0 | 14.5 | 0.00 | 0.00 | 0.00 | 1020.8 | |
| 20260507051311 | -17 | 275 | 9.7 | 17.7 | 0.00 | 0.00 | 0.00 | 1020.8 | |
| 20260507050245 | -17 | 267 | 9.7 | 22.5 | 0.00 | 0.00 | 0.00 | 1020.8 | |
| 20260507045246 | -17 | 268 | 11.3 | 20.9 | 0.00 | 0.00 | 0.00 | 1020.7 | |
| 20260507044246 | -17 | 260 | 12.9 | 24.1 | 0.00 | 0.00 | 0.00 | 1020.8 | |
| 20260507043246 | -17 | 252 | 11.3 | 20.9 | 0.00 | 0.00 | 0.00 | 1020.8 | |
| 20260507042338 | -17 | 260 | 12.9 | 24.1 | 0.00 | 0.00 | 0.00 | 1020.7 | |
| 20260507041402 | -17 | 248 | 11.3 | 20.9 | 0.00 | 0.00 | 0.00 | 1020.8 | |
| 20260507040338 | -17 | 250 | 9.7 | 20.9 | 0.00 | 0.00 | 0.00 | 1020.7 | |
| 20260507035339 | -17 | 265 | 11.3 | 24.1 | 0.00 | 0.00 | 0.00 | 1020.6 | |
| 20260507034344 | -17 | 276 | 12.9 | 20.9 | 0.00 | 0.00 | 0.00 | 1020.4 | |
| 20260507033346 | -17 | 269 | 12.9 | 24.1 | 0.00 | 0.00 | 0.00 | 1020.3 | |
| 20260507032346 | -17 | 287 | 11.3 | 19.3 | 0.00 | 0.00 | 0.00 | 1020.3 | |
| 20260507030346 | -17 | 301 | 11.3 | 20.9 | 0.00 | 0.00 | 0.00 | 1020.3 | |
| 20260507025347 | -17 | 304 | 11.3 | 20.9 | 0.00 | 0.00 | 0.00 | 1020.2 | |
| 20260507024347 | -17 | 296 | 14.5 | 22.5 | 0.00 | 0.00 | 0.00 | 1020.1 | |
| 20260507023350 | -17 | 297 | 12.9 | 24.1 | 0.00 | 0.00 | 0.00 | 1020.0 | |
| 20260507022529 | -17 | 303 | 11.3 | 19.3 | 0.00 | 0.00 | 0.00 | 1019.9 | |
| 20260507021430 | -17 | 302 | 11.3 | 24.1 | 0.00 | 0.00 | 0.00 | 1019.9 | |
| 20260507020350 | -17 | 289 | 11.3 | 24.1 | 0.00 | 0.00 | 0.00 | 1019.8 | |
| 20260507015350 | -17 | 290 | 12.9 | 20.9 | 0.00 | 0.00 | 0.00 | 1019.8 | |
| 20260507014349 | -17 | 307 | 9.7 | 20.9 | 0.00 | 0.00 | 0.00 | 1019.8 | |
| 20260507013349 | -17 | 278 | 11.3 | 20.9 | 0.00 | 0.00 | 0.00 | 1019.9 | |
| 20260507012350 | -17 | 294 | 12.9 | 24.1 | 0.00 | 0.00 | 0.00 | 1019.9 | |
| 20260507011414 | -17 | 293 | 12.9 | 25.7 | 0.00 | 0.00 | 0.00 | 1020.0 | |
| 20260507010350 | -17 | 294 | 9.7 | 16.1 | 0.00 | 0.00 | 0.00 | 1020.2 | |
| 20260507005415 | -17 | 295 | 14.5 | 25.7 | 0.00 | 0.00 | 0.00 | 1020.2 | |
| 20260507004351 | -17 | 323 | 11.3 | 20.9 | 0.00 | 0.00 | 0.00 | 1020.3 | |
| 20260507003350 | -17 | 290 | 12.9 | 22.5 | 0.00 | 0.00 | 0.00 | 1020.2 | |
| 20260507002350 | -17 | 293 | 14.5 | 27.4 | 0.00 | 0.00 | 0.00 | 1020.2 | |
| 20260507001415 | -17 | 298 | 9.7 | 22.5 | 0.00 | 0.00 | 0.00 | 1020.1 | |
| 20260507000351 | -17 | 306 | 12.9 | 27.4 | 0.00 | 0.00 | 0.00 | 1020.1 | |
| 20260506235354 | -17 | 290 | 11.3 | 20.9 | 0.00 | 0.00 | 0.00 | 1020.2 | |
| 20260506234351 | -17 | 298 | 12.9 | 20.9 | 0.00 | 0.00 | 0.00 | 1020.2 | |
| 20260506233351 | -17 | 297 | 11.3 | 27.4 | 0.00 | 0.00 | 0.00 | 1020.2 | |
| 20260506232349 | -17 | 295 | 11.3 | 19.3 | 0.00 | 0.00 | 0.00 | 1020.2 | |
| 20260506231412 | -17 | 297 | 9.7 | 24.1 | 0.00 | 0.00 | 0.00 | 1020.2 | |
| 20260506230346 | -17 | 300 | 9.7 | 22.5 | 0.00 | 0.00 | 0.00 | 1020.3 | |
| 20260506224346 | -17 | 283 | 8.0 | 22.5 | 0.00 | 0.00 | 0.00 | 1020.3 | |
| 20260506223416 | -17 | 297 | 9.7 | 22.5 | 0.00 | 0.00 | 0.00 | 1020.4 | |
| 20260506222346 | -17 | 321 | 12.9 | 24.1 | 0.00 | 0.00 | 0.00 | 1020.5 | |
| 20260506221410 | -17 | 315 | 12.9 | 29.0 | 0.00 | 0.00 | 0.00 | 1020.6 | |
| 20260506220346 | -17 | 309 | 12.9 | 24.1 | 0.00 | 0.00 | 0.00 | 1020.5 | |
| 20260506215346 | -17 | 308 | 9.7 | 17.7 | 0.00 | 0.00 | 0.00 | 1020.5 | |
| 20260506214345 | -17 | 305 | 8.0 | 22.5 | 0.00 | 0.00 | 0.00 | 1020.5 | |
| 20260506213345 | -17 | 325 | 8.0 | 14.5 | 0.00 | 0.00 | 0.00 | 1020.5 | |
| 20260506212345 | -17 | 304 | 11.3 | 29.0 | 0.00 | 0.00 | 0.00 | 1020.4 | |
| 20260506210344 | -17 | 293 | 12.9 | 22.5 | 0.00 | 0.00 | 0.00 | 1020.4 | |
| 20260506205344 | -17 | 280 | 11.3 | 22.5 | 0.00 | 0.00 | 0.00 | 1020.4 | |
| 20260506204344 | -17 | 271 | 9.7 | 22.5 | 0.00 | 0.00 | 0.00 | 1020.3 | |
| 20260506203345 | -17 | 281 | 11.3 | 16.1 | 0.00 | 0.00 | 0.00 | 1020.3 | |
| 20260506202345 | -17 | 259 | 9.7 | 20.9 | 0.00 | 0.00 | 0.00 | 1020.3 | |
| 20260506201409 | -17 | 273 | 12.9 | 29.0 | 0.00 | 0.00 | 0.00 | 1020.4 | |
| 20260506200345 | -17 | 284 | 12.9 | 24.1 | 0.00 | 0.00 | 0.00 | 1020.4 | |
| 20260506195344 | -17 | 281 | 14.5 | 25.7 | 0.00 | 0.00 | 0.00 | 1020.3 | |
| 20260506194344 | -17 | 265 | 12.9 | 25.7 | 0.00 | 0.00 | 0.00 | 1020.2 | |
| 20260506193344 | -17 | 264 | 11.3 | 19.3 | 0.00 | 0.00 | 0.00 | 1020.0 | |
| 20260506192344 | -17 | 257 | 9.7 | 17.7 | 0.00 | 0.00 | 0.00 | 1019.8 | |
| 20260506191411 | -17 | 258 | 11.3 | 24.1 | 0.00 | 0.00 | 0.00 | 1020.0 | |
| 20260506190342 | -17 | 295 | 8.0 | 20.9 | 0.00 | 0.00 | 0.00 | 1020.1 | |
| 20260506185342 | -17 | 249 | 9.7 | 22.5 | 0.00 | 0.00 | 0.00 | 1020.1 | |
| 20260506184343 | -17 | 249 | 8.0 | 19.3 | 0.00 | 0.00 | 0.00 | 1020.1 | |
| 20260506183342 | -17 | 236 | 4.8 | 19.3 | 0.00 | 0.00 | 0.00 | 1020.3 | |
| 20260506182407 | -17 | 240 | 8.0 | 19.3 | 0.00 | 0.00 | 0.00 | 1020.2 | |
| 20260506181407 | -17 | 266 | 8.0 | 19.3 | 0.00 | 0.00 | 0.00 | 1020.3 | |
| 20260506180343 | -17 | 311 | 3.2 | 9.7 | 0.00 | 0.00 | 0.00 | 1020.2 | |
| 20260506175345 | -17 | 302 | 3.2 | 6.4 | 0.00 | 0.00 | 0.00 | 1020.1 | |
| 20260506174342 | -17 | 289 | 3.2 | 9.7 | 0.00 | 0.00 | 0.00 | 1020.1 | |
| 20260506173343 | -17 | 292 | 4.8 | 9.7 | 0.00 | 0.00 | 0.00 | 1020.0 | |
| 20260506172343 | -17 | 304 | 3.2 | 9.7 | 0.00 | 0.00 | 0.00 | 1019.9 | |
| 20260506171407 | -17 | 270 | 3.2 | 9.7 | 0.00 | 0.00 | 0.00 | 1019.9 | |
| 20260506170342 | -17 | 255 | 4.8 | 11.3 | 0.00 | 0.00 | 0.00 | 1019.9 | |
| 20260506165342 | -17 | 282 | 6.4 | 9.7 | 0.00 | 0.00 | 0.00 | 1019.9 | |
| 20260506164343 | -17 | 271 | 6.4 | 14.5 | 0.00 | 0.00 | 0.00 | 1019.9 | |
| 20260506163342 | -17 | 255 | 6.4 | 14.5 | 0.00 | 0.00 | 0.00 | 1019.9 | |
| 20260506162342 | -17 | 259 | 8.0 | 14.5 | 0.00 | 0.00 | 0.00 | 1019.9 | |
| 20260506161405 | -17 | 246 | 6.4 | 16.1 | 0.00 | 0.00 | 0.00 | 1019.9 | |
| 20260506160445 | -17 | 265 | 6.4 | 14.5 | 0.00 | 0.00 | 0.00 | 1020.0 | |
| 20260506155340 | -17 | 297 | 3.2 | 6.4 | 0.00 | 0.00 | 0.00 | 1019.9 | |
| 20260506154343 | -17 | 342 | 3.2 | 6.4 | 0.00 | 0.00 | 0.00 | 1019.6 | |
| 20260506153344 | -17 | 69 | 1.6 | 3.2 | 0.00 | 0.00 | 0.00 | 1019.2 | |
| 20260506152345 | -17 | 14 | 1.6 | 4.8 | 0.00 | 0.00 | 0.00 | 1019.1 | |
| 20260506151407 | -17 | 199 | 1.6 | 1.6 | 0.00 | 0.00 | 0.00 | 1019.2 | |
| 20260506150343 | -17 | 211 | 1.6 | 6.4 | 0.00 | 0.00 | 0.00 | 1019.6 | |
| 20260506145343 | -17 | 244 | 4.8 | 11.3 | 0.00 | 0.00 | 0.00 | 1019.8 | |
| 20260506144340 | -17 | 273 | 6.4 | 12.9 | 0.00 | 0.00 | 0.00 | 1019.8 |